Time;durP1;ratioP1;P1;durP2;ratioP2;P2;SDS_P1;SDS_P2;PMS_P1;PMS_P2;Temp;Humidity;BMP_temperature;BMP_pressure;BME280_temperature;BME280_humidity;BME280_pressure;Samples;Min_cycle;Max_cycle;Signal;HPM_P1;HPM_P2
2023/12/13 00:01:02;;;;;;;4.27;3.07;;;7.00;91.20;;;;;;4832107;29;20658;-82
2023/12/13 00:03:30;;;;;;;6.77;3.43;;;7.00;91.20;;;;;;4830156;29;20660;-84
2023/12/13 00:05:59;;;;;;;7.60;4.17;;;7.00;91.10;;;;;;4836887;29;20211;-84
2023/12/13 00:08:28;;;;;;;2.80;2.17;;;7.00;91.00;;;;;;4838871;29;20206;-83
2023/12/13 00:10:59;;;;;;;2.17;1.97;;;7.00;91.00;;;;;;4839244;29;20218;-83
2023/12/13 00:13:29;;;;;;;8.47;5.10;;;6.90;90.90;;;;;;4832204;29;20215;-84
2023/12/13 00:15:57;;;;;;;3.27;2.57;;;6.90;90.80;;;;;;4831897;29;20207;-84
2023/12/13 00:18:26;;;;;;;3.30;3.00;;;6.90;90.90;;;;;;4836641;29;20216;-82
2023/12/13 00:20:55;;;;;;;1.90;1.43;;;6.90;90.90;;;;;;4832991;29;20602;-83
2023/12/13 00:23:23;;;;;;;2.13;2.03;;;6.90;91.00;;;;;;4833581;29;20237;-83
2023/12/13 00:25:52;;;;;;;2.50;2.30;;;6.90;91.10;;;;;;4832209;29;20230;-84
2023/12/13 00:28:20;;;;;;;2.27;2.00;;;6.90;91.10;;;;;;4834657;29;20217;-84
2023/12/13 00:30:52;;;;;;;4.13;3.73;;;6.90;91.10;;;;;;4832698;29;20228;-84
2023/12/13 00:33:21;;;;;;;3.03;2.83;;;6.90;91.10;;;;;;4834235;29;20211;-84
2023/12/13 00:35:49;;;;;;;4.77;3.97;;;6.90;91.10;;;;;;4832280;29;20207;-83
2023/12/13 00:38:18;;;;;;;5.20;3.43;;;6.90;91.10;;;;;;4838063;29;20224;-83
2023/12/13 00:40:46;;;;;;;6.57;4.60;;;7.00;91.20;;;;;;4832124;29;20224;-84
2023/12/13 00:43:15;;;;;;;3.00;2.80;;;7.00;91.20;;;;;;4834134;29;20285;-83
2023/12/13 00:45:44;;;;;;;3.40;3.13;;;7.00;91.20;;;;;;4834444;29;20213;-83
2023/12/13 00:48:14;;;;;;;4.13;1.63;;;7.00;91.20;;;;;;4833506;29;20213;-82
2023/12/13 00:50:43;;;;;;;2.43;2.23;;;7.00;91.20;;;;;;4833428;29;20221;-82
2023/12/13 00:53:12;;;;;;;4.97;4.17;;;7.00;91.30;;;;;;4825987;29;20285;-81
2023/12/13 00:55:40;;;;;;;6.07;3.87;;;7.00;91.30;;;;;;4832182;29;20203;-83
2023/12/13 00:58:09;;;;;;;8.33;4.63;;;7.00;91.20;;;;;;4833259;29;20282;-82
2023/12/13 01:00:38;;;;;;;3.40;3.13;;;7.00;91.20;;;;;;4830956;29;20198;-83
2023/12/13 01:03:06;;;;;;;3.30;3.00;;;7.00;91.20;;;;;;4835768;29;20261;-84
2023/12/13 01:05:36;;;;;;;2.77;2.43;;;7.00;91.20;;;;;;4837277;29;20220;-82
2023/12/13 01:08:05;;;;;;;2.80;2.60;;;7.00;91.20;;;;;;4835186;29;20677;-82
2023/12/13 01:10:34;;;;;;;4.10;3.73;;;7.00;91.20;;;;;;4830978;29;20546;-82
2023/12/13 01:13:02;;;;;;;4.53;4.13;;;7.00;91.60;;;;;;4834189;29;20675;-82
2023/12/13 01:15:31;;;;;;;4.50;3.27;;;7.00;91.20;;;;;;4833053;29;20206;-83
2023/12/13 01:17:59;;;;;;;3.63;2.10;;;7.10;91.30;;;;;;4838912;29;20747;-83
2023/12/13 01:20:28;;;;;;;2.77;2.30;;;7.00;91.20;;;;;;4830750;29;20219;-80
2023/12/13 01:22:58;;;;;;;2.40;2.20;;;7.00;91.20;;;;;;4835964;29;20233;-82
2023/12/13 01:25:26;;;;;;;4.80;2.73;;;7.10;91.30;;;;;;4831444;29;20210;-83
2023/12/13 01:27:57;;;;;;;2.67;2.43;;;7.10;91.30;;;;;;4833852;29;20245;-82
2023/12/13 01:30:26;;;;;;;3.60;3.10;;;7.10;91.20;;;;;;4832300;29;20206;-83
2023/12/13 01:32:55;;;;;;;5.43;3.43;;;7.10;91.20;;;;;;4835639;29;20206;-83
2023/12/13 01:35:24;;;;;;;4.67;4.27;;;7.10;91.20;;;;;;4833915;29;20265;-82
2023/12/13 01:37:51;;;;;;;6.90;2.87;;;7.10;91.20;;;;;;4834791;29;20220;-83
2023/12/13 01:40:21;;;;;;;1.80;1.63;;;7.10;91.20;;;;;;4828300;29;20210;-82
2023/12/13 01:42:50;;;;;;;2.97;2.70;;;7.10;91.20;;;;;;4833319;29;20701;-83
2023/12/13 01:45:18;;;;;;;4.17;3.77;;;7.10;91.30;;;;;;4828596;29;20440;-82
2023/12/13 01:47:47;;;;;;;5.93;3.70;;;7.10;91.30;;;;;;4830571;29;20290;-83
2023/12/13 01:50:16;;;;;;;2.50;2.30;;;7.20;91.30;;;;;;4835401;29;20205;-82
2023/12/13 01:52:45;;;;;;;3.70;2.90;;;7.20;91.30;;;;;;4835529;29;20224;-83
2023/12/13 01:55:14;;;;;;;5.30;3.17;;;7.20;91.40;;;;;;4843889;29;20202;-83
2023/12/13 01:57:44;;;;;;;7.10;3.13;;;7.20;91.30;;;;;;4837478;29;20282;-84
2023/12/13 02:00:14;;;;;;;4.70;3.10;;;7.20;91.20;;;;;;4838935;29;20570;-83
2023/12/13 02:08:08;;;;;;;3.67;2.13;;;7.20;91.10;;;;;;4839506;29;20240;-83
2023/12/13 02:10:38;;;;;;;5.30;2.20;;;7.20;91.20;;;;;;4841719;29;20206;-83
2023/12/13 02:13:08;;;;;;;4.13;2.57;;;7.20;91.20;;;;;;4839515;29;20201;-83
2023/12/13 02:15:37;;;;;;;4.57;3.23;;;7.20;91.20;;;;;;4839665;29;20203;-83
2023/12/13 02:18:09;;;;;;;3.00;1.90;;;7.30;91.60;;;;;;4842556;29;20210;-83
2023/12/13 02:20:38;;;;;;;1.90;1.80;;;7.30;91.20;;;;;;4835361;29;20609;-83
2023/12/13 02:23:08;;;;;;;2.40;2.23;;;7.30;91.20;;;;;;4837553;29;20227;-84
2023/12/13 02:25:38;;;;;;;3.90;2.27;;;7.30;91.20;;;;;;4839836;29;20225;-83
2023/12/13 02:28:07;;;;;;;1.47;1.37;;;7.30;91.20;;;;;;4837985;29;20241;-83
2023/12/13 02:30:36;;;;;;;1.43;1.33;;;7.40;91.20;;;;;;4838677;29;20198;-83
2023/12/13 02:33:04;;;;;;;1.83;1.73;;;7.40;91.10;;;;;;4842386;29;20293;-82
2023/12/13 02:35:33;;;;;;;3.27;2.53;;;7.40;91.00;;;;;;4841831;29;20214;-83
2023/12/13 02:38:01;;;;;;;3.40;2.10;;;7.40;91.00;;;;;;4847469;29;20218;-83
2023/12/13 02:43:30;;;;;;;0.93;0.93;;;7.40;91.00;;;;;;4833972;29;20238;-83
2023/12/13 02:45:58;;;;;;;3.50;3.17;;;7.30;91.00;;;;;;4833676;29;20206;-83
2023/12/13 02:48:40;;;;;;;1.83;1.73;;;7.40;91.10;;;;;;4839660;29;20241;-83
2023/12/13 02:51:09;;;;;;;2.30;1.70;;;7.40;91.10;;;;;;4832289;29;20214;-84
2023/12/13 02:53:38;;;;;;;2.00;1.80;;;7.40;91.10;;;;;;4842988;29;20218;-83
2023/12/13 02:56:09;;;;;;;7.63;4.27;;;7.40;91.00;;;;;;4835917;29;20285;-83
2023/12/13 02:58:38;;;;;;;3.13;2.83;;;7.40;90.90;;;;;;4841494;29;20291;-83
2023/12/13 03:01:20;;;;;;;3.00;2.80;;;7.40;90.90;;;;;;4830541;29;20211;-84
2023/12/13 03:03:49;;;;;;;2.07;1.93;;;7.40;90.90;;;;;;4835517;29;20218;-84
2023/12/13 03:06:17;;;;;;;2.87;2.60;;;7.40;90.80;;;;;;4836736;29;20669;-84
2023/12/13 03:08:46;;;;;;;3.80;2.13;;;7.40;90.90;;;;;;4836791;29;20574;-83
2023/12/13 03:11:16;;;;;;;9.93;2.10;;;7.40;90.90;;;;;;4834860;29;20552;-82
2023/12/13 03:13:44;;;;;;;1.00;0.93;;;7.40;90.90;;;;;;4833299;29;20222;-83
2023/12/13 03:16:13;;;;;;;2.87;1.77;;;7.50;90.90;;;;;;4829770;29;20210;-82
2023/12/13 03:18:42;;;;;;;2.13;1.87;;;7.50;90.90;;;;;;4831837;29;20738;-83
2023/12/13 03:21:10;;;;;;;2.30;2.10;;;7.50;90.90;;;;;;4838682;29;20202;-84
2023/12/13 03:23:39;;;;;;;1.40;1.30;;;7.50;90.90;;;;;;4838733;29;20720;-83
2023/12/13 03:26:07;;;;;;;3.13;2.27;;;7.50;90.90;;;;;;4837996;29;20237;-84
2023/12/13 03:28:37;;;;;;;1.93;1.83;;;7.50;91.00;;;;;;4835203;29;20206;-84
2023/12/13 03:31:09;;;;;;;7.40;2.33;;;7.50;91.00;;;;;;4839020;29;20210;-87
2023/12/13 03:33:38;;;;;;;1.57;1.47;;;7.50;91.00;;;;;;4838022;29;20202;-85
2023/12/13 03:36:15;;;;;;;1.90;1.80;;;7.50;91.00;;;;;;4836200;29;20206;-84
2023/12/13 03:38:44;;;;;;;1.77;1.67;;;7.50;91.00;;;;;;4829038;29;20686;-85
2023/12/13 03:41:13;;;;;;;2.10;2.00;;;7.50;91.10;;;;;;4840284;29;20672;-84
2023/12/13 03:43:43;;;;;;;2.00;1.87;;;7.50;91.10;;;;;;4834869;29;20238;-85
2023/12/13 03:46:12;;;;;;;3.83;2.43;;;7.50;91.20;;;;;;4830865;29;20251;-89
2023/12/13 03:48:41;;;;;;;2.17;2.00;;;7.50;91.20;;;;;;4834482;29;20567;-89
2023/12/13 03:51:09;;;;;;;4.60;2.85;;;7.50;91.30;;;;;;4836946;29;20456;-89
2023/12/13 03:53:39;;;;;;;4.30;2.47;;;7.50;91.30;;;;;;4835170;29;20237;-88
2023/12/13 03:56:08;;;;;;;5.03;3.77;;;7.50;91.30;;;;;;4842165;29;20249;-88
2023/12/13 03:58:38;;;;;;;2.30;2.00;;;7.50;91.40;;;;;;4845021;29;20215;-88
2023/12/13 04:01:09;;;;;;;7.10;3.53;;;7.60;91.40;;;;;;4842916;29;20199;-87
2023/12/13 04:03:37;;;;;;;2.87;2.47;;;7.60;91.40;;;;;;4842893;29;20226;-89
2023/12/13 04:06:06;;;;;;;3.30;3.03;;;7.60;91.40;;;;;;4836072;29;20731;-88
2023/12/13 04:08:35;;;;;;;2.53;2.33;;;7.60;91.40;;;;;;4837166;29;20236;-89
2023/12/13 04:11:04;;;;;;;5.77;3.60;;;7.60;91.40;;;;;;4827529;29;20234;-88
2023/12/13 04:13:32;;;;;;;5.60;3.13;;;7.70;91.50;;;;;;4829180;29;20213;-88
2023/12/13 04:16:01;;;;;;;2.00;1.87;;;7.70;91.40;;;;;;4839963;29;20210;-88
2023/12/13 04:18:31;;;;;;;3.53;2.93;;;7.70;91.40;;;;;;4842087;29;20198;-89
2023/12/13 04:21:00;;;;;;;7.40;3.03;;;7.70;91.40;;;;;;4842566;29;20340;-89
2023/12/13 04:23:29;;;;;;;3.07;2.57;;;7.70;91.30;;;;;;4838361;29;20296;-86
2023/12/13 04:25:57;;;;;;;5.77;5.07;;;7.70;91.40;;;;;;4830044;29;20674;-84
2023/12/13 04:28:26;;;;;;;3.60;3.30;;;7.70;91.40;;;;;;4833158;29;20274;-84
2023/12/13 04:30:55;;;;;;;3.43;2.93;;;7.70;91.40;;;;;;4834709;29;20319;-82
2023/12/13 04:33:23;;;;;;;10.50;3.87;;;7.70;91.30;;;;;;4832489;29;20211;-85
2023/12/13 04:35:59;;;;;;;2.60;2.40;;;7.70;91.30;;;;;;4833746;29;20576;-84
2023/12/13 04:41:10;;;;;;;2.33;2.03;;;7.70;91.30;;;;;;4831900;29;20557;-82
2023/12/13 04:43:39;;;;;;;1.40;1.30;;;7.70;91.30;;;;;;4825119;29;20580;-81
2023/12/13 04:46:07;;;;;;;4.70;3.83;;;7.70;91.30;;;;;;4833586;29;20203;-82
2023/12/13 04:48:36;;;;;;;3.47;2.67;;;7.70;91.30;;;;;;4831625;29;20203;-84
2023/12/13 04:51:07;;;;;;;2.93;2.70;;;7.70;91.40;;;;;;4828969;29;20271;-83
2023/12/13 04:53:36;;;;;;;6.80;4.20;;;7.70;91.30;;;;;;4830289;29;20211;-83
2023/12/13 04:56:05;;;;;;;6.73;5.23;;;7.60;91.20;;;;;;4830453;29;20648;-81
2023/12/13 04:58:33;;;;;;;8.00;3.67;;;7.60;91.20;;;;;;4829142;29;20588;-83
2023/12/13 05:01:02;;;;;;;4.20;2.70;;;7.70;91.20;;;;;;4833349;29;20230;-81
2023/12/13 05:03:31;;;;;;;2.33;2.13;;;7.70;91.20;;;;;;4830934;29;20325;-85
2023/12/13 05:06:00;;;;;;;3.20;2.90;;;7.70;91.20;;;;;;4839031;29;20237;-84
2023/12/13 05:08:43;;;;;;;3.27;2.90;;;7.70;91.20;;;;;;4839130;29;20214;-86
2023/12/13 05:11:12;;;;;;;2.23;2.03;;;7.70;91.20;;;;;;4837824;29;20297;-86
2023/12/13 05:13:41;;;;;;;5.77;2.90;;;7.70;91.10;;;;;;4834774;29;20206;-88
2023/12/13 05:16:10;;;;;;;7.10;4.33;;;7.70;91.20;;;;;;4830259;29;20214;-84
2023/12/13 05:18:39;;;;;;;3.57;3.27;;;7.70;91.10;;;;;;4835164;29;20642;-83
2023/12/13 05:21:07;;;;;;;7.40;4.57;;;7.70;91.00;;;;;;4830180;29;20203;-83
2023/12/13 05:23:36;;;;;;;6.87;4.07;;;7.70;91.00;;;;;;4833465;29;20210;-81
2023/12/13 05:26:07;;;;;;;2.87;2.67;;;7.70;91.00;;;;;;4833793;29;20238;-82
2023/12/13 05:28:35;;;;;;;3.60;2.60;;;7.70;91.10;;;;;;4831290;29;20342;-84
2023/12/13 05:33:47;;;;;;;3.70;2.63;;;7.70;91.10;;;;;;4829100;29;20290;-83
2023/12/13 05:36:16;;;;;;;5.70;3.93;;;7.80;91.10;;;;;;4832804;29;20214;-86
2023/12/13 05:38:46;;;;;;;6.90;4.00;;;7.80;91.10;;;;;;4837747;29;20210;-84
2023/12/13 05:41:17;;;;;;;8.03;4.33;;;7.80;91.10;;;;;;4838333;29;20206;-88
2023/12/13 05:43:46;;;;;;;5.30;2.07;;;7.80;91.10;;;;;;4836587;29;20207;-87
2023/12/13 05:46:15;;;;;;;5.37;3.10;;;7.90;91.10;;;;;;4835849;29;20243;-86
2023/12/13 05:48:44;;;;;;;4.20;3.33;;;7.90;91.00;;;;;;4836994;29;20205;-84
2023/12/13 05:51:13;;;;;;;6.30;2.77;;;7.90;91.00;;;;;;4834365;29;20324;-85
2023/12/13 05:53:42;;;;;;;7.97;3.00;;;7.90;91.00;;;;;;4830619;29;20298;-84
2023/12/13 05:56:12;;;;;;;5.53;4.97;;;7.90;91.00;;;;;;4836828;29;20644;-84
2023/12/13 05:58:42;;;;;;;4.33;2.93;;;7.90;90.90;;;;;;4836143;29;20228;-84
2023/12/13 06:01:11;;;;;;;7.53;5.10;;;7.90;90.90;;;;;;4837744;29;20202;-84
2023/12/13 06:03:53;;;;;;;5.03;3.20;;;7.90;90.90;;;;;;4830879;29;20210;-82
2023/12/13 06:10:32;;;;;;;6.60;6.00;;;7.90;90.90;;;;;;4835038;29;20199;-86
2023/12/13 06:13:01;;;;;;;3.73;3.43;;;7.90;90.90;;;;;;4835189;29;20259;-87
2023/12/13 06:15:32;;;;;;;3.87;3.53;;;7.90;91.00;;;;;;4834471;29;20615;-83
2023/12/13 06:18:01;;;;;;;11.73;6.13;;;7.90;91.00;;;;;;4838067;29;20199;-89
2023/12/13 06:20:29;;;;;;;5.50;3.93;;;7.90;91.00;;;;;;4835021;29;20207;-86
2023/12/13 06:22:58;;;;;;;10.00;4.53;;;7.90;91.10;;;;;;4838347;29;20665;-88
2023/12/13 06:25:26;;;;;;;4.37;2.70;;;7.90;91.10;;;;;;4840718;29;20232;-89
2023/12/13 06:27:55;;;;;;;3.70;3.27;;;8.00;91.20;;;;;;4838081;29;20293;-87
2023/12/13 06:30:24;;;;;;;3.90;2.63;;;8.00;91.30;;;;;;4834027;29;20206;-87
2023/12/13 06:32:54;;;;;;;2.73;2.30;;;8.10;91.30;;;;;;4833888;29;20206;-89
2023/12/13 06:35:22;;;;;;;5.60;3.60;;;8.10;91.30;;;;;;4840437;29;20207;-88
2023/12/13 06:37:51;;;;;;;10.43;4.40;;;8.20;91.50;;;;;;4847827;29;20203;-90
2023/12/13 06:40:20;;;;;;;6.00;3.83;;;8.20;91.40;;;;;;4846887;29;20720;-85
2023/12/13 06:42:48;;;;;;;3.67;2.70;;;8.20;91.40;;;;;;4842398;29;20278;-83
2023/12/13 06:45:18;;;;;;;3.23;3.03;;;8.30;91.40;;;;;;4841649;29;20233;-82
2023/12/13 06:47:48;;;;;;;5.23;3.80;;;8.30;91.50;;;;;;4839659;29;20203;-82
2023/12/13 06:50:19;;;;;;;5.17;3.60;;;8.30;91.50;;;;;;4840932;29;20215;-85
2023/12/13 06:52:48;;;;;;;4.40;4.00;;;8.30;91.40;;;;;;4841699;29;20657;-84
2023/12/13 06:55:18;;;;;;;8.33;5.67;;;8.30;91.40;;;;;;4842832;29;20214;-90
2023/12/13 06:57:47;;;;;;;6.73;4.23;;;8.30;91.30;;;;;;4842706;29;20526;-86
2023/12/13 07:00:19;;;;;;;4.83;4.10;;;8.30;91.50;;;;;;4842471;29;21124;-88
2023/12/13 07:02:48;;;;;;;3.70;3.30;;;8.20;91.40;;;;;;4841832;29;20194;-86
2023/12/13 07:05:18;;;;;;;7.70;5.00;;;8.10;91.40;;;;;;4843171;29;20260;-90
2023/12/13 07:07:48;;;;;;;3.83;3.50;;;8.10;91.50;;;;;;4842777;29;20258;-90
2023/12/13 07:10:17;;;;;;;7.70;4.17;;;8.10;91.50;;;;;;4838566;29;20242;-85
2023/12/13 07:12:46;;;;;;;6.93;3.47;;;8.10;91.60;;;;;;4844384;29;20236;-90
2023/12/13 07:15:15;;;;;;;11.53;3.07;;;8.10;91.70;;;;;;4845185;29;20317;-90
2023/12/13 07:17:44;;;;;;;7.83;4.50;;;8.10;91.70;;;;;;4844844;29;20215;-90
2023/12/13 07:20:13;;;;;;;4.63;4.10;;;8.10;91.70;;;;;;4837509;29;20823;-88
2023/12/13 07:22:43;;;;;;;5.07;2.67;;;8.10;91.80;;;;;;4844295;29;20561;-92
2023/12/13 07:27:55;;;;;;;9.83;5.70;;;8.10;91.80;;;;;;4843264;29;20229;-91
2023/12/13 07:30:24;;;;;;;4.57;3.37;;;8.10;91.90;;;;;;4846569;29;20293;-90
2023/12/13 07:32:54;;;;;;;5.63;4.13;;;8.00;91.90;;;;;;4837787;29;20190;-89
2023/12/13 07:35:23;;;;;;;7.40;6.37;;;8.10;91.90;;;;;;4843107;29;21959;-89
2023/12/13 07:38:07;;;;;;;9.67;4.23;;;8.00;92.10;;;;;;4842477;29;20201;-85
2023/12/13 07:40:36;;;;;;;8.17;4.07;;;7.90;92.10;;;;;;4838480;29;20207;-85
2023/12/13 07:43:04;;;;;;;3.37;2.93;;;7.90;92.20;;;;;;4834518;29;20670;-88
2023/12/13 07:45:33;;;;;;;9.23;5.10;;;7.90;91.90;;;;;;4836163;29;20378;-91
2023/12/13 07:48:03;;;;;;;7.17;5.03;;;7.80;92.20;;;;;;4841817;29;20619;-90
2023/12/13 07:50:53;;;;;;;4.70;4.07;;;7.80;92.30;;;;;;4838992;29;20210;-88
2023/12/13 07:53:38;;;;;;;5.87;5.27;;;7.70;92.30;;;;;;4844318;29;20229;-90
2023/12/13 07:58:57;;;;;;;5.93;4.17;;;7.80;92.30;;;;;;4835715;29;20263;-90
2023/12/13 08:04:24;;;;;;;6.20;4.93;;;7.80;92.40;;;;;;4839430;29;20223;-88
2023/12/13 08:06:53;;;;;;;3.23;2.93;;;7.80;92.40;;;;;;4834482;29;20313;-88
2023/12/13 08:15:17;;;;;;;4.10;3.53;;;7.90;92.60;;;;;;4831564;29;20203;-89
2023/12/13 08:17:47;;;;;;;7.53;5.67;;;7.80;92.80;;;;;;4837243;29;20249;-87
2023/12/13 08:23:00;;;;;;;6.73;4.60;;;7.80;92.90;;;;;;4840641;29;20221;-91
2023/12/13 08:25:30;;;;;;;9.63;5.67;;;7.80;93.00;;;;;;4840345;29;20239;-90
2023/12/13 08:27:59;;;;;;;6.77;4.47;;;7.80;93.10;;;;;;4844756;29;20194;-90
2023/12/13 08:30:28;;;;;;;8.63;4.23;;;7.80;93.10;;;;;;4842395;29;20200;-90
2023/12/13 08:32:57;;;;;;;5.17;4.67;;;7.80;93.10;;;;;;4843275;29;20301;-89
2023/12/13 08:35:26;;;;;;;5.20;3.97;;;7.90;93.20;;;;;;4842469;29;20214;-88
2023/12/13 08:37:55;;;;;;;4.87;3.70;;;7.90;93.20;;;;;;4842328;29;20691;-90
2023/12/13 08:40:24;;;;;;;3.03;2.80;;;7.80;93.40;;;;;;4842347;29;20213;-90
2023/12/13 08:42:54;;;;;;;5.23;3.60;;;7.90;93.30;;;;;;4833421;29;20255;-87
2023/12/13 08:45:23;;;;;;;8.77;5.13;;;7.90;93.50;;;;;;4842994;29;20217;-89
2023/12/13 08:47:52;;;;;;;7.80;4.57;;;7.90;93.50;;;;;;4833842;29;20211;-92
2023/12/13 08:50:20;;;;;;;5.30;3.97;;;7.90;93.60;;;;;;4838572;29;20262;-87
2023/12/13 08:52:49;;;;;;;9.80;3.37;;;7.90;93.50;;;;;;4839383;29;20245;-85
2023/12/13 08:55:18;;;;;;;7.00;6.17;;;8.00;93.60;;;;;;4833686;29;20600;-90
2023/12/13 08:57:47;;;;;;;8.53;3.53;;;8.00;93.70;;;;;;4843059;29;20212;-89
2023/12/13 09:00:17;;;;;;;7.37;4.37;;;8.00;93.80;;;;;;4834716;29;20297;-89
2023/12/13 09:02:46;;;;;;;4.40;3.40;;;8.00;93.90;;;;;;4842478;29;20741;-90
2023/12/13 09:05:15;;;;;;;4.83;4.37;;;8.00;94.00;;;;;;4837299;29;20671;-93
2023/12/13 09:07:44;;;;;;;5.80;4.27;;;8.00;94.10;;;;;;4839863;29;20291;-91
2023/12/13 09:10:13;;;;;;;5.63;4.27;;;8.00;94.30;;;;;;4836854;29;20680;-90
2023/12/13 09:12:41;;;;;;;7.87;6.13;;;8.00;94.20;;;;;;4836008;29;20306;-90
2023/12/13 09:15:10;;;;;;;6.03;5.53;;;8.00;94.30;;;;;;4837091;29;20217;-88
2023/12/13 09:17:45;;;;;;;7.30;3.57;;;8.00;94.50;;;;;;4838742;29;20634;-90
2023/12/13 09:20:15;;;;;;;15.07;7.47;;;8.00;94.50;;;;;;4832130;29;20294;-91
2023/12/13 09:22:44;;;;;;;4.80;3.67;;;8.10;94.50;;;;;;4834884;29;20242;-91
2023/12/13 09:25:14;;;;;;;3.37;3.07;;;8.10;94.50;;;;;;4832233;29;20207;-88
2023/12/13 09:27:43;;;;;;;2.87;2.63;;;8.20;94.40;;;;;;4840082;29;20245;-89
2023/12/13 09:30:13;;;;;;;4.00;3.37;;;8.20;94.20;;;;;;4842086;29;20231;-89
2023/12/13 09:32:43;;;;;;;6.50;4.60;;;8.20;94.10;;;;;;4844872;29;20205;-92
2023/12/13 09:35:15;;;;;;;7.57;5.27;;;8.20;94.00;;;;;;4835175;29;20654;-88
2023/12/13 09:37:44;;;;;;;6.33;4.00;;;8.20;93.80;;;;;;4837174;29;20673;-89
2023/12/13 09:40:18;;;;;;;7.80;4.30;;;8.20;93.80;;;;;;4841742;29;20213;-87
2023/12/13 09:42:47;;;;;;;4.97;3.70;;;8.30;93.90;;;;;;4842593;29;20706;-87
2023/12/13 09:45:21;;;;;;;2.40;2.30;;;8.30;93.90;;;;;;4838844;29;20205;-89
2023/12/13 09:47:55;;;;;;;2.63;2.47;;;8.30;94.00;;;;;;4835694;29;20230;-88
2023/12/13 09:50:24;;;;;;;5.13;4.63;;;8.30;94.20;;;;;;4837494;29;20229;-88
2023/12/13 09:55:54;;;;;;;8.27;5.20;;;8.40;94.30;;;;;;4842249;29;20209;-89
2023/12/13 09:58:23;;;;;;;6.87;4.03;;;8.50;94.40;;;;;;4837519;29;20297;-86
2023/12/13 10:01:10;;;;;;;3.77;3.23;;;8.60;94.60;;;;;;4834903;29;20255;-86
2023/12/13 10:13:26;;;;;;;3.00;1.93;;;9.00;94.40;;;;;;4838976;29;20250;-87
2023/12/13 10:16:13;;;;;;;2.97;2.73;;;9.10;94.30;;;;;;4841696;29;20596;-83
2023/12/13 10:18:42;;;;;;;2.83;1.97;;;9.20;94.20;;;;;;4840230;29;20244;-83
2023/12/13 10:21:11;;;;;;;7.10;3.40;;;9.30;94.10;;;;;;4843250;29;20258;-85
2023/12/13 10:26:58;;;;;;;7.13;3.80;;;9.50;93.60;;;;;;4848244;29;20238;-85
2023/12/13 10:32:11;;;;;;;3.03;2.80;;;9.70;93.40;;;;;;4841897;29;20590;-85
2023/12/13 10:37:37;;;;;;;2.30;1.33;;;9.90;93.00;;;;;;4837463;29;20330;-87
2023/12/13 10:40:22;;;;;;;3.83;3.10;;;9.90;92.60;;;;;;4843103;29;20198;-85
2023/12/13 10:48:40;;;;;;;2.57;2.37;;;10.20;92.40;;;;;;4838400;29;20230;-87
2023/12/13 10:51:10;;;;;;;6.30;3.70;;;10.20;91.90;;;;;;4841914;29;20207;-87
2023/12/13 10:56:24;;;;;;;4.60;3.07;;;10.30;92.10;;;;;;4840742;29;20463;-87
2023/12/13 10:58:53;;;;;;;6.17;4.90;;;10.30;91.40;;;;;;4840402;29;20207;-89
2023/12/13 11:01:22;;;;;;;3.67;3.33;;;10.30;91.10;;;;;;4833513;29;20304;-88
2023/12/13 11:03:58;;;;;;;6.00;2.70;;;10.40;91.40;;;;;;4837862;29;20232;-87
2023/12/13 11:06:28;;;;;;;2.97;2.10;;;10.40;91.50;;;;;;4837040;29;20561;-86
2023/12/13 11:08:57;;;;;;;3.03;2.73;;;10.50;91.50;;;;;;4841548;29;20262;-87
2023/12/13 11:11:29;;;;;;;3.87;2.20;;;10.50;91.10;;;;;;4843176;29;20564;-87
2023/12/13 11:13:59;;;;;;;1.93;1.80;;;10.50;91.00;;;;;;4838858;29;20206;-85
2023/12/13 11:16:28;;;;;;;3.20;3.00;;;10.60;91.10;;;;;;4837247;29;20251;-86
2023/12/13 11:19:01;;;;;;;4.33;3.60;;;10.60;91.10;;;;;;4833348;29;20295;-89
2023/12/13 11:21:32;;;;;;;4.50;3.07;;;10.70;91.40;;;;;;4843351;29;20214;-91
2023/12/13 11:24:12;;;;;;;1.90;1.77;;;10.70;90.80;;;;;;4841559;29;20294;-90
2023/12/13 11:26:45;;;;;;;2.83;2.53;;;10.70;91.20;;;;;;4843133;29;20225;-90
2023/12/13 11:29:15;;;;;;;1.80;1.67;;;10.70;90.50;;;;;;4843198;29;20211;-90
2023/12/13 11:31:53;;;;;;;3.33;1.67;;;10.70;90.50;;;;;;4845309;29;20272;-89
2023/12/13 11:34:33;;;;;;;4.13;3.13;;;10.80;90.50;;;;;;4839400;29;20206;-86
2023/12/13 11:37:02;;;;;;;2.20;1.93;;;10.70;90.40;;;;;;4840629;29;20249;-89
2023/12/13 11:39:31;;;;;;;4.83;3.30;;;10.70;90.40;;;;;;4842727;29;20680;-86
2023/12/13 11:42:02;;;;;;;6.27;3.17;;;10.70;90.40;;;;;;4840966;29;20207;-83
2023/12/13 11:44:32;;;;;;;4.10;2.17;;;10.70;90.30;;;;;;4839012;29;20206;-86
2023/12/13 11:49:44;;;;;;;1.63;1.53;;;10.70;90.40;;;;;;4840243;29;20214;-85
2023/12/13 11:52:13;;;;;;;5.23;2.80;;;10.60;90.40;;;;;;4840418;29;20647;-84
2023/12/13 11:54:42;;;;;;;4.03;2.63;;;10.60;90.40;;;;;;4837586;29;20213;-84
2023/12/13 11:57:16;;;;;;;2.87;2.63;;;10.60;90.40;;;;;;4836979;29;20279;-84
2023/12/13 11:59:46;;;;;;;5.17;3.53;;;10.60;90.50;;;;;;4838564;29;20716;-85
2023/12/13 12:02:17;;;;;;;2.73;2.50;;;10.60;90.50;;;;;;4832904;29;20206;-83
2023/12/13 12:04:49;;;;;;;4.17;3.47;;;10.60;90.50;;;;;;4834488;29;20206;-84
2023/12/13 12:07:19;;;;;;;7.17;4.13;;;10.60;90.60;;;;;;4838214;29;20203;-83
2023/12/13 12:09:48;;;;;;;9.47;5.13;;;10.60;90.50;;;;;;4832822;29;20645;-90
2023/12/13 12:12:19;;;;;;;4.50;3.47;;;10.50;90.60;;;;;;4837524;29;20206;-93
2023/12/13 12:14:49;;;;;;;5.57;3.33;;;10.60;90.70;;;;;;4840694;29;20218;-89
2023/12/13 12:17:20;;;;;;;4.97;4.43;;;10.60;90.70;;;;;;4842419;29;20271;-89
2023/12/13 12:19:49;;;;;;;2.63;1.80;;;10.70;90.70;;;;;;4840864;29;20738;-89
2023/12/13 12:22:19;;;;;;;5.27;2.97;;;10.80;90.80;;;;;;4840599;29;20220;-88
2023/12/13 12:24:51;;;;;;;4.30;3.70;;;10.80;90.70;;;;;;4840211;29;20213;-86
2023/12/13 12:30:18;;;;;;;5.20;3.17;;;10.80;90.70;;;;;;4842364;29;20238;-90
2023/12/13 12:35:58;;;;;;;4.97;2.37;;;10.80;90.60;;;;;;4842161;29;20555;-91
2023/12/13 12:38:41;;;;;;;2.43;2.07;;;10.80;90.70;;;;;;4835466;29;20207;-91
2023/12/13 12:44:21;;;;;;;7.53;4.13;;;10.70;90.70;;;;;;4837481;29;20203;-90
2023/12/13 12:49:31;;;;;;;7.67;4.20;;;10.60;91.10;;;;;;4836383;29;20264;-90
2023/12/13 12:52:00;;;;;;;6.43;4.43;;;10.70;90.80;;;;;;4839022;29;20214;-91
2023/12/13 12:54:43;;;;;;;4.10;3.00;;;10.70;90.80;;;;;;4839389;29;20228;-91
2023/12/13 12:57:11;;;;;;;7.27;3.77;;;10.70;90.90;;;;;;4841288;29;20562;-90
2023/12/13 12:59:41;;;;;;;6.87;3.13;;;10.70;90.80;;;;;;4833390;29;20214;-86
2023/12/13 13:02:10;;;;;;;7.10;3.97;;;10.70;90.80;;;;;;4833890;29;20217;-84
2023/12/13 13:04:39;;;;;;;4.83;3.93;;;10.70;90.80;;;;;;4830578;29;20214;-84
2023/12/13 13:07:07;;;;;;;7.80;3.33;;;10.70;91.00;;;;;;4832149;29;20215;-85
2023/12/13 13:09:36;;;;;;;5.00;3.83;;;10.70;90.90;;;;;;4828053;29;20715;-85
2023/12/13 13:12:05;;;;;;;12.67;3.70;;;10.70;91.00;;;;;;4835766;29;20285;-86
2023/12/13 13:14:34;;;;;;;1.97;1.87;;;10.70;90.90;;;;;;4831270;29;20980;-83
2023/12/13 13:19:46;;;;;;;7.77;2.90;;;10.60;91.10;;;;;;4837237;29;20194;-85
2023/12/13 13:25:11;;;;;;;3.20;2.83;;;10.60;91.00;;;;;;4836635;29;20295;-83
2023/12/13 13:27:54;;;;;;;4.90;3.63;;;10.60;91.00;;;;;;4832759;29;20210;-84
2023/12/13 13:30:22;;;;;;;4.13;3.50;;;10.60;91.00;;;;;;4836837;29;20726;-83
2023/12/13 13:32:53;;;;;;;3.77;3.43;;;10.60;91.10;;;;;;4832468;29;20270;-84
2023/12/13 13:38:04;;;;;;;6.07;3.87;;;10.60;91.40;;;;;;4839071;29;20709;-86
2023/12/13 13:40:33;;;;;;;5.90;3.13;;;10.60;91.30;;;;;;4834144;29;20218;-83
2023/12/13 13:43:02;;;;;;;6.13;5.10;;;10.50;91.50;;;;;;4839018;29;20210;-86
2023/12/13 13:45:30;;;;;;;3.90;2.93;;;10.50;91.40;;;;;;4828466;29;20211;-85
2023/12/13 13:48:16;;;;;;;3.37;3.07;;;10.60;91.50;;;;;;4837634;29;20202;-86
2023/12/13 13:51:00;;;;;;;4.47;2.93;;;10.60;91.40;;;;;;4832696;29;20447;-84
2023/12/13 13:56:24;;;;;;;9.07;4.83;;;10.50;91.50;;;;;;4831868;29;20588;-86
2023/12/13 14:01:46;;;;;;;4.27;2.90;;;10.50;91.70;;;;;;4832392;29;20214;-85
2023/12/13 14:07:28;;;;;;;3.27;2.93;;;10.40;91.80;;;;;;4827351;29;20264;-86
2023/12/13 14:10:11;;;;;;;4.30;2.07;;;10.40;91.80;;;;;;4833095;29;20241;-85
2023/12/13 14:15:35;;;;;;;7.27;3.83;;;10.40;91.70;;;;;;4837447;29;20231;-88
2023/12/13 14:18:07;;;;;;;4.67;4.03;;;10.40;91.90;;;;;;4834766;29;20211;-86
2023/12/13 14:20:36;;;;;;;4.90;4.10;;;10.40;91.90;;;;;;4835767;29;20210;-88
2023/12/13 14:23:06;;;;;;;6.03;3.87;;;10.40;91.90;;;;;;4838901;29;20681;-86
2023/12/13 14:25:35;;;;;;;2.57;2.30;;;10.40;92.00;;;;;;4833176;29;20564;-89
2023/12/13 14:28:04;;;;;;;3.47;2.07;;;10.40;91.90;;;;;;4832003;29;20202;-88
2023/12/13 14:30:32;;;;;;;4.47;3.23;;;10.40;91.90;;;;;;4832029;29;20572;-88
2023/12/13 14:33:01;;;;;;;3.20;2.93;;;10.40;92.00;;;;;;4831479;29;20284;-88
2023/12/13 14:35:30;;;;;;;2.97;2.63;;;10.40;92.00;;;;;;4829339;29;20219;-86
2023/12/13 14:37:59;;;;;;;6.67;4.27;;;10.40;91.90;;;;;;4832431;29;20219;-86
2023/12/13 14:40:29;;;;;;;6.30;2.70;;;10.40;91.90;;;;;;4834552;29;20263;-86
2023/12/13 14:42:58;;;;;;;4.53;3.70;;;10.40;92.00;;;;;;4833032;29;20294;-88
2023/12/13 14:45:27;;;;;;;3.97;3.60;;;10.40;92.00;;;;;;4836535;29;20618;-85
2023/12/13 14:47:56;;;;;;;6.00;4.70;;;10.40;92.00;;;;;;4832876;29;20742;-85
2023/12/13 14:50:25;;;;;;;2.47;2.27;;;10.40;92.10;;;;;;4837066;29;20230;-87